Domov               UVHVVR             MKGP            O straneh              
ZDRAVSTVENO VARSTVO RASTLIN
  MREŽA AGROMET. POSTAJ
 ► PROGNOSTIČNA OBVESTILA
AGROMETEOROLOŠKI PODATKI -
ARSO
OBVLADOVANJE TVEGANJ ZARADI
NEUGODNIH VREMENSKIH RAZMER
  ► NARAVNE NESREČE
  ► SUŠA/MOČA
  ► NAMAKANJE
  ► ŽLED (gozdarstvo)
KARTOGRAFSKI PRIKAZI
SPLETNE POVEZAVE
PROJEKTI IN PUBLIKACIJE

AGROMETEOROLOŠKA MREŽA: VREMENSKE POSTAJE IN FENOLOŠKA OPAZOVANJA

Pregled podatkov za lokacijo Črnomelj, meteorološka postaja 859096

Pregled senzorjev na lokaciji

ID Ime Zadnja
vrednost
Datum
zadnje
spremembe
Tip
senzorja
4082 Omočenost lista (U) 0 U 21.2.2019 22:15 A730WET
4083 Padavine (mm) 0 mm 21.2.2019 22:15 Rain-O-Matic
4081 Relativna vlaga 2 m (% RH) 69,99 % RH 21.2.2019 22:15 50YA
4080 Temperatura 2 m (°C) 6,72 °C 21.2.2019 22:15 50YA

Pregled podatkov zadnjih 24 ur

Zap.
št.
Datum in čas Črnomelj
Omočenost
lista
Padavine Relativna
vlaga
2
m
Temperatura
2
m
1 21.2.2019 23:00
2 21.2.2019 22:30
3 21.2.2019 22:00 0 0 62,2 8,1
4 21.2.2019 21:30 0 0 60,4 8,3
5 21.2.2019 21:00 0 0 63,4 7,7
6 21.2.2019 20:30 0 0 63,7 7,6
7 21.2.2019 20:00 0 0 62,9 7,8
8 21.2.2019 19:30 0 0 61,6 8,1
9 21.2.2019 19:00 0 0 60,6 8,5
10 21.2.2019 18:30 0 0 61,7 8,5
11 21.2.2019 18:00 0 0 62,6 8,6
12 21.2.2019 17:30 0 0 60,6 9,4
13 21.2.2019 17:00 0 0 54,4 11,2
14 21.2.2019 16:30 0 0 40,1 14,5
15 21.2.2019 16:00 0 0 40,6 14,3
16 21.2.2019 15:30 0 0 43,4 13,6
17 21.2.2019 15:00 0 0 44,3 13,3
18 21.2.2019 14:30 0 0 43,3 13,6
19 21.2.2019 14:00 0 0 43 13,4
20 21.2.2019 13:30 0 0 44,4 12,8
21 21.2.2019 13:00 0 0 46,2 12,3
22 21.2.2019 12:30 0 0 48,1 11,8
23 21.2.2019 12:00 0 0 49,2 11,1
24 21.2.2019 11:30 0 0 52,1 10,4
25 21.2.2019 11:00 0 0 57,3 9,3
26 21.2.2019 10:30 0 0 63,5 8,3
27 21.2.2019 10:00 0 0 67,1 7,2
28 21.2.2019 09:30 0 0 70,5 6,3
29 21.2.2019 09:00 0 0 72,9 5,7
30 21.2.2019 08:30 0 0 77 4,6
31 21.2.2019 08:00 0 0 79,9 3,7
32 21.2.2019 07:30 0 0 81,8 2,9
33 21.2.2019 07:00 0 0 86,3 1,9
34 21.2.2019 06:30 0 0 78,3 3,6
35 21.2.2019 06:00 0 0 76,4 4,2
36 21.2.2019 05:30 0 0 76 4,1
37 21.2.2019 05:00 0 0 78,4 3,6
38 21.2.2019 04:30 0 0 78,2 3,6
39 21.2.2019 04:00 0 0 78,4 3,5
40 21.2.2019 03:30 0 0 75,3 4,1
41 21.2.2019 03:00 0 0 74,1 4,5
42 21.2.2019 02:30 0 0 76,1 4,2
43 21.2.2019 02:00 0 0 74,9 4,5
44 21.2.2019 01:30 0 0 75,2 4,5
45 21.2.2019 01:00 0 0 72,8 5,1
46 21.2.2019 00:30 0 0 70,7 5,5
47 21.2.2019 00:00 0 0 72,6 5,2
48 20.2.2019 23:30 0 0 69,1 5,7
© 2011 Ministrstvo za kmetijstvo, gozdarstvo in prehrano. Vse pravice pridržane.